createdAt,value
2017-12-20T00:01:16.356Z,102472.22
2017-12-20T00:03:44.704Z,102478.67
2017-12-20T00:06:13.077Z,102478.26
2017-12-20T00:08:41.449Z,102482.78
2017-12-20T00:11:09.797Z,102488.36
2017-12-20T00:13:38.183Z,102483.21
2017-12-20T00:16:06.532Z,102479.29
2017-12-20T00:18:34.923Z,102478.50
2017-12-20T00:21:03.374Z,102474.93
2017-12-20T00:23:31.757Z,102474.84
2017-12-20T00:26:00.109Z,102485.73
2017-12-20T00:28:28.516Z,102485.06
2017-12-20T00:30:56.879Z,102487.70
2017-12-20T00:33:26.192Z,102486.88
2017-12-20T00:35:54.560Z,102489.74
2017-12-20T00:38:22.907Z,102488.59
2017-12-20T00:40:51.652Z,102491.63
2017-12-20T00:43:20.122Z,102490.42
2017-12-20T00:45:48.472Z,102492.03
2017-12-20T00:48:16.816Z,102487.53
2017-12-20T00:50:45.189Z,102491.58
2017-12-20T00:53:13.543Z,102491.81
2017-12-20T00:55:41.910Z,102493.61
2017-12-20T00:58:10.294Z,102482.95
2017-12-20T01:00:38.665Z,102490.61
2017-12-20T01:03:07.044Z,102487.11
2017-12-20T01:05:35.407Z,102487.07
2017-12-20T01:08:03.762Z,102484.53
2017-12-20T01:10:32.191Z,102473.98
2017-12-20T01:13:00.673Z,102480.02
2017-12-20T01:15:29.040Z,102478.50
2017-12-20T01:17:57.417Z,102492.04
2017-12-20T01:20:25.900Z,102492.52
2017-12-20T01:22:54.274Z,102491.89
2017-12-20T01:25:22.636Z,102497.86
2017-12-20T01:27:51.013Z,102489.62
2017-12-20T01:30:19.355Z,102492.27
2017-12-20T01:32:47.712Z,102494.98
2017-12-20T01:35:16.176Z,102490.97
2017-12-20T01:37:44.523Z,102489.60
2017-12-20T01:40:12.935Z,102497.53
2017-12-20T01:42:42.909Z,102495.74
2017-12-20T01:45:11.649Z,102494.95
2017-12-20T01:47:40.016Z,102494.21
2017-12-20T01:50:08.408Z,102504.09
2017-12-20T01:52:36.769Z,102504.67
2017-12-20T01:55:05.152Z,102511.58
2017-12-20T01:57:33.509Z,102505.58
2017-12-20T02:00:01.886Z,102507.97
2017-12-20T02:02:30.239Z,102503.12
2017-12-20T02:04:58.607Z,102505.62
2017-12-20T02:07:27.460Z,102499.44
2017-12-20T02:09:55.834Z,102500.06
2017-12-20T02:12:24.188Z,102505.00
2017-12-20T02:14:52.536Z,102498.84
2017-12-20T02:17:20.972Z,102495.22
2017-12-20T02:19:49.387Z,102499.14
2017-12-20T02:22:17.753Z,102508.38
2017-12-20T02:24:46.104Z,102511.66
2017-12-20T02:27:14.461Z,102514.27
2017-12-20T02:29:42.828Z,102506.50
2017-12-20T02:32:11.247Z,102508.59
2017-12-20T02:34:39.624Z,102508.52
2017-12-20T02:37:08.005Z,102519.92
2017-12-20T02:39:36.387Z,102520.72
2017-12-20T02:42:09.447Z,102523.70
2017-12-20T02:44:37.838Z,102511.09
2017-12-20T02:47:06.186Z,102509.65
2017-12-20T02:49:35.008Z,102518.16
2017-12-20T02:52:03.377Z,102514.36
2017-12-20T02:54:31.777Z,102510.34
2017-12-20T02:57:00.136Z,102502.61
2017-12-20T02:59:28.528Z,102502.86
2017-12-20T03:01:56.923Z,102500.66
2017-12-20T03:04:25.288Z,102504.85
2017-12-20T03:06:53.672Z,102505.25
2017-12-20T03:09:22.027Z,102489.42
2017-12-20T03:11:50.404Z,102480.95
2017-12-20T03:14:19.619Z,102486.48
2017-12-20T03:16:47.999Z,102487.98
2017-12-20T03:19:16.355Z,102487.15
2017-12-20T03:21:44.703Z,102489.14
2017-12-20T03:24:13.464Z,102488.83
2017-12-20T03:26:41.808Z,102483.00
2017-12-20T03:29:10.206Z,102481.63
2017-12-20T03:31:38.556Z,102476.23
2017-12-20T03:34:06.938Z,102486.09
2017-12-20T03:36:35.293Z,102483.94
2017-12-20T03:39:04.036Z,102481.53
2017-12-20T03:41:32.504Z,102484.20
2017-12-20T03:44:00.844Z,102484.41
2017-12-20T03:46:29.270Z,102483.72
2017-12-20T03:48:57.620Z,102485.09
2017-12-20T03:51:26.058Z,102480.98
2017-12-20T03:53:54.908Z,102477.59
2017-12-20T03:56:23.312Z,102486.18
2017-12-20T03:58:51.769Z,102479.36
2017-12-20T04:01:20.123Z,102481.00
2017-12-20T04:03:48.528Z,102482.70
2017-12-20T04:06:16.867Z,102479.88
2017-12-20T04:08:45.275Z,102491.67
2017-12-20T04:11:13.633Z,102498.75
2017-12-20T04:13:42.084Z,102489.32
2017-12-20T04:16:10.531Z,102490.87
2017-12-20T04:18:38.888Z,102492.48
2017-12-20T04:21:07.235Z,102489.19
2017-12-20T04:23:35.990Z,102488.16
2017-12-20T04:26:04.333Z,102485.25
2017-12-20T04:28:32.747Z,102495.20
2017-12-20T04:31:01.109Z,102492.63
2017-12-20T04:33:29.488Z,102492.69
2017-12-20T04:35:57.865Z,102496.55
2017-12-20T04:38:26.232Z,102501.52
2017-12-20T04:40:54.608Z,102503.53
2017-12-20T04:43:22.995Z,102503.03
2017-12-20T04:45:51.972Z,102509.23
2017-12-20T04:48:20.326Z,102508.79
2017-12-20T04:50:49.067Z,102513.53
2017-12-20T04:53:17.536Z,102512.75
2017-12-20T04:55:45.891Z,102513.63
2017-12-20T04:58:14.297Z,102507.87
2017-12-20T05:00:42.636Z,102501.00
2017-12-20T05:03:11.034Z,102501.14
2017-12-20T05:05:39.400Z,102507.84
2017-12-20T05:08:07.759Z,102511.03
2017-12-20T05:10:36.588Z,102506.74
2017-12-20T05:13:04.946Z,102506.70
2017-12-20T05:15:33.316Z,102505.13
2017-12-20T05:18:01.668Z,102507.80
2017-12-20T05:20:30.111Z,102502.27
2017-12-20T05:22:59.413Z,102499.11
2017-12-20T05:25:27.796Z,102502.03
2017-12-20T05:27:56.835Z,102504.58
2017-12-20T05:30:25.345Z,102506.33
2017-12-20T05:32:53.856Z,102513.38
2017-12-20T05:35:22.217Z,102514.87
2017-12-20T05:37:50.584Z,102513.57
2017-12-20T05:40:18.959Z,102520.65
2017-12-20T05:42:47.309Z,102523.44
2017-12-20T05:45:16.073Z,102528.14
2017-12-20T05:47:44.441Z,102525.49
2017-12-20T05:50:13.808Z,102525.45
2017-12-20T05:52:42.224Z,102530.06
2017-12-20T05:55:10.576Z,102525.84
2017-12-20T05:57:38.964Z,102527.79
2017-12-20T06:00:07.360Z,102526.94
2017-12-20T06:02:35.840Z,102533.42
2017-12-20T06:05:04.296Z,102537.96
2017-12-20T06:07:32.671Z,102535.69
2017-12-20T06:10:01.063Z,102536.69
2017-12-20T06:12:29.432Z,102542.33
2017-12-20T06:14:57.792Z,102544.17
2017-12-20T06:17:26.145Z,102542.08
2017-12-20T06:19:54.920Z,102547.38
2017-12-20T06:22:23.265Z,102551.50
2017-12-20T06:24:51.609Z,102550.02
2017-12-20T06:27:20.024Z,102549.36
2017-12-20T06:29:48.401Z,102550.12
2017-12-20T06:32:16.765Z,102556.58
2017-12-20T06:34:45.125Z,102560.31
2017-12-20T06:37:13.501Z,102555.70
2017-12-20T06:39:41.883Z,102561.56
2017-12-20T06:42:10.250Z,102566.31
2017-12-20T06:44:38.997Z,102568.91
2017-12-20T06:47:07.472Z,102573.55
2017-12-20T06:49:35.864Z,102574.52
2017-12-20T06:52:04.229Z,102575.72
2017-12-20T06:54:32.586Z,102576.75
2017-12-20T06:57:01.075Z,102571.18
2017-12-20T06:59:29.454Z,102579.42
2017-12-20T07:01:57.830Z,102579.11
2017-12-20T07:04:26.325Z,102583.07
2017-12-20T07:06:54.714Z,102576.92
2017-12-20T07:09:23.097Z,102576.53
2017-12-20T07:11:51.468Z,102575.19
2017-12-20T07:14:19.827Z,102576.64
2017-12-20T07:16:48.204Z,102577.33
2017-12-20T07:19:16.598Z,102583.07
2017-12-20T07:21:44.964Z,102580.15
2017-12-20T07:24:13.353Z,102587.53
2017-12-20T07:26:41.734Z,102582.06
2017-12-20T07:29:10.088Z,102581.58
2017-12-20T07:31:38.440Z,102586.22
2017-12-20T07:34:07.212Z,102585.02
2017-12-20T07:36:36.055Z,102587.60
2017-12-20T07:39:04.412Z,102587.69
2017-12-20T07:41:32.844Z,102590.98
2017-12-20T07:44:01.181Z,102591.61
2017-12-20T07:46:29.572Z,102587.60
2017-12-20T07:48:58.025Z,102589.93
2017-12-20T07:51:26.405Z,102590.17
2017-12-20T07:53:54.809Z,102598.06
2017-12-20T07:56:23.212Z,102593.91
2017-12-20T07:58:51.562Z,102596.73
2017-12-20T08:01:19.908Z,102597.20
2017-12-20T08:03:48.324Z,102601.13
2017-12-20T08:06:16.693Z,102606.29
2017-12-20T08:08:45.083Z,102598.45
2017-12-20T08:11:13.434Z,102604.47
2017-12-20T08:13:41.805Z,102610.64
2017-12-20T08:16:10.579Z,102612.67
2017-12-20T08:18:39.424Z,102608.78
2017-12-20T08:21:07.785Z,102608.31
2017-12-20T08:23:36.221Z,102611.19
2017-12-20T08:26:04.993Z,102606.72
2017-12-20T08:28:33.368Z,102606.31
2017-12-20T08:31:01.730Z,102611.52
2017-12-20T08:33:30.204Z,102611.80
2017-12-20T08:35:58.569Z,102609.22
2017-12-20T08:38:26.916Z,102609.00
2017-12-20T08:40:55.712Z,102612.23
2017-12-20T08:43:24.240Z,102621.78
2017-12-20T08:45:53.232Z,102631.17
2017-12-20T08:48:21.586Z,102628.36
2017-12-20T08:50:50.087Z,102624.52
2017-12-20T08:53:18.481Z,102626.29
2017-12-20T08:55:46.841Z,102628.05
2017-12-20T08:58:15.211Z,102632.52
2017-12-20T09:00:43.568Z,102634.76
2017-12-20T09:03:11.992Z,102642.50
2017-12-20T09:05:40.355Z,102636.27
2017-12-20T09:08:08.740Z,102633.61
2017-12-20T09:10:37.332Z,102633.45
2017-12-20T09:13:05.704Z,102635.76
2017-12-20T09:15:34.071Z,102637.95
2017-12-20T09:18:02.420Z,102641.62
2017-12-20T09:20:30.840Z,102643.56
2017-12-20T09:22:59.217Z,102645.73
2017-12-20T09:25:27.588Z,102643.75
2017-12-20T09:27:56.897Z,102648.00
2017-12-20T09:30:25.252Z,102648.23
2017-12-20T09:32:53.670Z,102646.13
2017-12-20T09:35:22.028Z,102645.99
2017-12-20T09:37:50.401Z,102648.61
2017-12-20T09:40:18.788Z,102647.47
2017-12-20T09:42:47.188Z,102653.67
2017-12-20T09:45:15.652Z,102648.28
2017-12-20T09:47:44.036Z,102643.43
2017-12-20T09:50:12.451Z,102643.60
2017-12-20T09:52:41.205Z,102637.06
2017-12-20T09:55:09.583Z,102636.05
2017-12-20T09:57:37.953Z,102644.13
2017-12-20T10:00:06.549Z,102634.77
2017-12-20T10:02:34.906Z,102637.64
2017-12-20T10:05:03.263Z,102632.19
2017-12-20T10:07:31.634Z,102631.73
2017-12-20T10:09:59.990Z,102633.34
2017-12-20T10:12:28.756Z,102624.35
2017-12-20T10:14:57.117Z,102624.72
2017-12-20T10:17:25.495Z,102628.55
2017-12-20T10:19:53.873Z,102629.22
2017-12-20T10:22:22.234Z,102628.98
2017-12-20T10:24:50.731Z,102622.20
2017-12-20T10:27:19.111Z,102617.63
2017-12-20T10:29:47.498Z,102619.67
2017-12-20T10:32:15.849Z,102618.09
2017-12-20T10:34:44.207Z,102613.00
2017-12-20T10:37:12.626Z,102601.95
2017-12-20T10:39:41.007Z,102606.06
2017-12-20T10:42:09.381Z,102598.09
2017-12-20T10:44:37.732Z,102595.67
2017-12-20T10:47:06.144Z,102599.97
2017-12-20T10:49:34.533Z,102608.31
2017-12-20T10:52:02.908Z,102601.95
2017-12-20T10:54:31.285Z,102609.00
2017-12-20T10:56:59.656Z,102608.44
2017-12-20T10:59:28.040Z,102604.82
2017-12-20T11:01:56.415Z,102608.72
2017-12-20T11:04:24.829Z,102596.81
2017-12-20T11:06:53.180Z,102597.39
2017-12-20T11:09:21.588Z,102587.91
2017-12-20T11:11:49.947Z,102592.00
2017-12-20T11:14:18.421Z,102589.58
2017-12-20T11:16:46.830Z,102588.41
2017-12-20T11:19:15.586Z,102598.44
2017-12-20T11:21:43.956Z,102588.41
2017-12-20T11:24:12.513Z,102592.72
2017-12-20T11:26:40.920Z,102580.75
2017-12-20T11:29:09.326Z,102582.39
2017-12-20T11:31:37.705Z,102589.46
2017-12-20T11:34:06.161Z,102576.55
2017-12-20T11:36:34.557Z,102576.88
2017-12-20T11:39:02.920Z,102570.13
2017-12-20T11:41:31.273Z,102577.00
2017-12-20T11:43:59.749Z,102581.40
2017-12-20T11:46:28.112Z,102582.38
2017-12-20T11:48:56.919Z,102587.55
2017-12-20T11:51:25.231Z,102587.20
2017-12-20T11:53:53.624Z,102587.72
2017-12-20T11:56:21.988Z,102583.48
2017-12-20T11:58:50.358Z,102581.20
2017-12-20T12:01:18.830Z,102578.09
2017-12-20T12:03:47.189Z,102574.70
2017-12-20T12:06:15.544Z,102576.78
2017-12-20T12:08:44.372Z,102569.23
2017-12-20T12:11:12.734Z,102566.33
2017-12-20T12:13:41.107Z,102568.41
2017-12-20T12:16:09.520Z,102566.77
2017-12-20T12:18:37.872Z,102561.16
2017-12-20T12:21:06.243Z,102570.22
2017-12-20T12:23:34.648Z,102565.37
2017-12-20T12:26:03.088Z,102559.93
2017-12-20T12:28:31.926Z,102565.59
2017-12-20T12:31:00.301Z,102560.67
2017-12-20T12:33:28.665Z,102559.81
2017-12-20T12:35:57.238Z,102564.98
2017-12-20T12:38:25.636Z,102561.45
2017-12-20T12:40:53.988Z,102559.59
2017-12-20T12:43:22.380Z,102560.56
2017-12-20T12:45:50.735Z,102564.41
2017-12-20T12:48:19.488Z,102555.55
2017-12-20T12:50:47.940Z,102556.53
2017-12-20T12:53:16.288Z,102562.02
2017-12-20T12:55:44.664Z,102563.09
2017-12-20T12:58:13.081Z,102565.44
2017-12-20T13:00:41.444Z,102562.63
2017-12-20T13:03:09.787Z,102559.55
2017-12-20T13:05:38.632Z,102554.45
2017-12-20T13:08:07.217Z,102546.45
2017-12-20T13:10:35.573Z,102549.79
2017-12-20T13:13:03.928Z,102549.16
2017-12-20T13:15:32.350Z,102545.81
2017-12-20T13:18:00.716Z,102541.17
2017-12-20T13:20:29.075Z,102531.70
2017-12-20T13:22:57.432Z,102537.80
2017-12-20T13:25:26.195Z,102543.96
2017-12-20T13:27:55.172Z,102541.91
2017-12-20T13:30:23.576Z,102538.79
2017-12-20T13:32:52.035Z,102540.52
2017-12-20T13:35:20.412Z,102537.69
2017-12-20T13:37:48.778Z,102536.41
2017-12-20T13:40:17.269Z,102541.97
2017-12-20T13:42:45.648Z,102544.47
2017-12-20T13:45:14.416Z,102545.23
2017-12-20T13:47:42.870Z,102542.80
2017-12-20T13:50:11.704Z,102544.44
2017-12-20T13:52:40.089Z,102540.56
2017-12-20T13:55:08.462Z,102538.70
2017-12-20T13:57:37.068Z,102541.97
2017-12-20T14:00:05.422Z,102543.31
2017-12-20T14:02:33.798Z,102551.34
2017-12-20T14:05:02.317Z,102548.77
2017-12-20T14:07:30.671Z,102548.84
2017-12-20T14:09:59.077Z,102550.59
2017-12-20T14:12:27.820Z,102539.05
2017-12-20T14:14:56.203Z,102537.77
2017-12-20T14:17:24.699Z,102534.78
2017-12-20T14:19:53.070Z,102537.66
2017-12-20T14:22:21.449Z,102533.92
2017-12-20T14:24:49.819Z,102540.42
2017-12-20T14:27:18.174Z,102538.73
2017-12-20T14:29:46.522Z,102543.19
2017-12-20T14:32:15.289Z,102543.32
2017-12-20T14:34:43.654Z,102542.65
2017-12-20T14:37:12.140Z,102537.88
2017-12-20T14:39:40.605Z,102539.91
2017-12-20T14:42:09.097Z,102542.59
2017-12-20T14:44:37.468Z,102536.24
2017-12-20T14:47:05.817Z,102543.06
2017-12-20T14:49:34.184Z,102539.05
2017-12-20T14:52:02.595Z,102541.22
2017-12-20T14:54:30.961Z,102540.22
2017-12-20T14:57:00.197Z,102542.05
2017-12-20T14:59:28.743Z,102543.83
2017-12-20T15:01:57.096Z,102534.23
2017-12-20T15:04:25.847Z,102532.06
2017-12-20T15:06:54.310Z,102527.23
2017-12-20T15:09:22.669Z,102529.58
2017-12-20T15:11:51.032Z,102525.82
2017-12-20T15:14:19.384Z,102523.72
2017-12-20T15:16:48.157Z,102524.35
2017-12-20T15:19:16.500Z,102521.52
2017-12-20T15:21:44.857Z,102519.55
2017-12-20T15:24:13.218Z,102525.09
2017-12-20T15:26:42.167Z,102523.62
2017-12-20T15:29:10.532Z,102525.16
2017-12-20T15:31:38.922Z,102535.80
2017-12-20T15:34:07.283Z,102534.08
2017-12-20T15:36:35.665Z,102541.70
2017-12-20T15:39:04.024Z,102533.38
2017-12-20T15:41:32.379Z,102532.32
2017-12-20T15:44:01.381Z,102535.80
2017-12-20T15:46:29.736Z,102538.22
2017-12-20T15:48:58.088Z,102536.66
2017-12-20T15:51:26.492Z,102532.75
2017-12-20T15:53:54.860Z,102528.27
2017-12-20T15:56:23.224Z,102528.27
2017-12-20T15:58:51.581Z,102528.97
2017-12-20T16:01:20.021Z,102523.92
2017-12-20T16:03:48.774Z,102526.83
2017-12-20T16:06:17.120Z,102528.11
2017-12-20T16:08:45.489Z,102520.46
2017-12-20T16:11:13.854Z,102530.33
2017-12-20T16:13:42.285Z,102529.61
2017-12-20T16:16:10.696Z,102520.38
2017-12-20T16:18:39.453Z,102511.81
2017-12-20T16:21:07.924Z,102522.66
2017-12-20T16:23:36.269Z,102518.05
2017-12-20T16:26:04.653Z,102512.95
2017-12-20T16:28:33.136Z,102516.05
2017-12-20T16:31:01.489Z,102508.75
2017-12-20T16:33:30.255Z,102505.91
2017-12-20T16:35:58.616Z,102505.27
2017-12-20T16:38:26.982Z,102506.84
2017-12-20T16:40:55.361Z,102501.36
2017-12-20T16:43:23.728Z,102495.59
2017-12-20T16:45:52.089Z,102492.15
2017-12-20T16:48:20.453Z,102493.64
2017-12-20T16:50:49.392Z,102493.56
2017-12-20T16:53:35.604Z,102490.81
2017-12-20T16:56:04.170Z,102489.64
2017-12-20T16:58:32.525Z,102488.25
2017-12-20T17:01:00.920Z,102481.97
2017-12-20T17:03:29.318Z,102484.84
2017-12-20T17:05:57.680Z,102475.61
2017-12-20T17:08:26.074Z,102476.67
2017-12-20T17:10:54.444Z,102476.91
2017-12-20T17:13:22.824Z,102482.95
2017-12-20T17:15:51.177Z,102488.81
2017-12-20T17:18:19.585Z,102497.58
2017-12-20T17:20:47.961Z,102489.36
2017-12-20T17:23:16.313Z,102491.00
2017-12-20T17:25:44.694Z,102496.58
2017-12-20T17:28:13.061Z,102490.34
2017-12-20T17:30:41.429Z,102488.69
2017-12-20T17:33:10.172Z,102496.66
2017-12-20T17:35:38.637Z,102496.21
2017-12-20T17:38:07.024Z,102499.66
2017-12-20T17:40:35.409Z,102498.33
2017-12-20T17:43:03.782Z,102492.34
2017-12-20T17:45:32.159Z,102501.53
2017-12-20T17:48:00.528Z,102499.81
2017-12-20T17:50:28.912Z,102497.61
2017-12-20T17:52:57.268Z,102489.20
2017-12-20T17:55:25.629Z,102494.81
2017-12-20T17:57:54.050Z,102496.54
2017-12-20T18:00:22.429Z,102491.52
2017-12-20T18:02:50.784Z,102496.95
2017-12-20T18:05:19.168Z,102493.78
2017-12-20T18:07:47.527Z,102493.98
2017-12-20T18:10:15.884Z,102490.92
2017-12-20T18:12:44.644Z,102486.88
2017-12-20T18:15:13.005Z,102499.30
2017-12-20T18:17:41.388Z,102490.83
2017-12-20T18:20:09.745Z,102485.45
2017-12-20T18:22:38.104Z,102484.53
2017-12-20T18:25:06.478Z,102489.12
2017-12-20T18:27:34.909Z,102493.61
2017-12-20T18:30:03.384Z,102496.58
2017-12-20T18:32:31.749Z,102494.22
2017-12-20T18:35:00.151Z,102495.03
2017-12-20T18:37:28.516Z,102491.91
2017-12-20T18:39:56.875Z,102500.82
2017-12-20T18:42:25.279Z,102502.22
2017-12-20T18:44:53.652Z,102502.66
2017-12-20T18:47:22.028Z,102502.96
2017-12-20T18:49:50.424Z,102507.39
2017-12-20T18:52:18.888Z,102506.64
2017-12-20T18:54:47.285Z,102503.11
2017-12-20T18:57:15.652Z,102506.37
2017-12-20T18:59:44.035Z,102496.41
2017-12-20T19:02:12.416Z,102492.55
2017-12-20T19:04:40.805Z,102499.86
2017-12-20T19:07:09.163Z,102493.93
2017-12-20T19:09:37.518Z,102499.96
2017-12-20T19:12:05.869Z,102494.84
2017-12-20T19:14:34.625Z,102489.83
2017-12-20T19:17:03.018Z,102488.69
2017-12-20T19:19:31.384Z,102487.86
2017-12-20T19:21:59.736Z,102496.09
2017-12-20T19:24:28.130Z,102487.27
2017-12-20T19:26:56.520Z,102483.29
2017-12-20T19:29:24.889Z,102474.56
2017-12-20T19:31:53.252Z,102475.85
2017-12-20T19:34:21.606Z,102473.00
2017-12-20T19:36:49.955Z,102468.85
2017-12-20T19:39:18.301Z,102473.39
2017-12-20T19:41:46.661Z,102472.17
2017-12-20T19:44:15.035Z,102478.23
2017-12-20T19:46:43.404Z,102472.73
2017-12-20T19:49:11.770Z,102468.17
2017-12-20T19:51:40.149Z,102455.64
2017-12-20T19:54:08.516Z,102452.26
2017-12-20T19:56:37.265Z,102454.31
2017-12-20T19:59:05.630Z,102455.58
2017-12-20T20:01:33.988Z,102451.27
2017-12-20T20:04:02.357Z,102453.33
2017-12-20T20:06:30.712Z,102457.43
2017-12-20T20:08:59.499Z,102455.92
2017-12-20T20:11:27.871Z,102452.39
2017-12-20T20:13:56.619Z,102458.69
2017-12-20T20:16:25.076Z,102460.14
2017-12-20T20:18:53.432Z,102454.36
2017-12-20T20:21:22.373Z,102442.64
2017-12-20T20:23:50.721Z,102445.03
2017-12-20T20:26:19.082Z,102439.06
2017-12-20T20:28:47.917Z,102434.47
2017-12-20T20:31:16.271Z,102437.31
2017-12-20T20:33:44.653Z,102432.45
2017-12-20T20:36:13.017Z,102441.41
2017-12-20T20:38:41.449Z,102443.52
2017-12-20T20:41:09.821Z,102443.58
2017-12-20T20:43:38.285Z,102439.13
2017-12-20T20:46:06.669Z,102431.33
2017-12-20T20:48:35.044Z,102430.44
2017-12-20T20:51:03.410Z,102430.83
2017-12-20T20:53:31.762Z,102422.19
2017-12-20T20:56:00.677Z,102411.04
2017-12-20T20:58:29.033Z,102409.81
2017-12-20T21:00:57.475Z,102412.73
2017-12-20T21:03:25.854Z,102406.02
2017-12-20T21:05:54.208Z,102404.41
2017-12-20T21:08:22.567Z,102395.85
2017-12-20T21:10:50.969Z,102396.50
2017-12-20T21:13:19.353Z,102396.01
2017-12-20T21:15:47.712Z,102395.95
2017-12-20T21:18:16.073Z,102411.67
2017-12-20T21:20:44.444Z,102409.67
2017-12-20T21:23:12.805Z,102416.98
2017-12-20T21:25:41.594Z,102408.12
2017-12-20T21:28:10.336Z,102410.13
2017-12-20T21:30:38.694Z,102418.95
2017-12-20T21:33:07.060Z,102417.97
2017-12-20T21:35:35.493Z,102412.42
2017-12-20T21:38:03.876Z,102408.30
2017-12-20T21:40:32.344Z,102404.93
2017-12-20T21:43:00.713Z,102404.22
2017-12-20T21:45:29.069Z,102407.25
2017-12-20T21:47:57.781Z,102403.57
2017-12-20T21:50:26.143Z,102407.03
2017-12-20T21:52:54.493Z,102416.48
2017-12-20T21:55:23.021Z,102411.87
2017-12-20T21:57:51.373Z,102418.78
2017-12-20T22:00:19.748Z,102406.74
2017-12-20T22:02:48.331Z,102401.41
2017-12-20T22:05:16.772Z,102394.62
2017-12-20T22:07:45.581Z,102396.50
2017-12-20T22:10:14.004Z,102389.17
2017-12-20T22:12:42.472Z,102387.34
2017-12-20T22:15:10.857Z,102393.77
2017-12-20T22:17:39.230Z,102388.39
2017-12-20T22:20:07.589Z,102389.93
2017-12-20T22:22:36.001Z,102389.09
2017-12-20T22:25:04.422Z,102381.91
2017-12-20T22:27:34.284Z,102384.00
2017-12-20T22:30:02.664Z,102379.72
2017-12-20T22:32:31.332Z,102382.24
2017-12-20T22:34:59.712Z,102378.18
2017-12-20T22:37:28.089Z,102375.14
2017-12-20T22:39:56.506Z,102367.78
2017-12-20T22:42:25.052Z,102374.19
2017-12-20T22:44:53.431Z,102373.85
2017-12-20T22:47:21.932Z,102371.12
2017-12-20T22:49:50.313Z,102379.27
2017-12-20T22:52:18.692Z,102378.20
2017-12-20T22:54:47.050Z,102387.22
2017-12-20T22:57:15.408Z,102374.48
2017-12-20T22:59:44.236Z,102365.80
2017-12-20T23:02:12.726Z,102358.35
2017-12-20T23:04:41.205Z,102360.91
2017-12-20T23:07:09.560Z,102363.16
2017-12-20T23:09:37.941Z,102347.41
2017-12-20T23:12:06.347Z,102360.47
2017-12-20T23:14:34.701Z,102351.00
2017-12-20T23:17:03.108Z,102347.86
2017-12-20T23:19:31.488Z,102341.73
2017-12-20T23:21:59.875Z,102339.45
2017-12-20T23:24:28.225Z,102334.80
2017-12-20T23:26:56.618Z,102330.60
2017-12-20T23:29:24.984Z,102330.88
2017-12-20T23:31:53.359Z,102322.03
2017-12-20T23:34:21.717Z,102316.44
2017-12-20T23:36:50.072Z,102325.62
2017-12-20T23:39:18.827Z,102320.27
2017-12-20T23:41:47.180Z,102316.39
2017-12-20T23:44:15.672Z,102317.66
2017-12-20T23:46:44.056Z,102312.09
2017-12-20T23:49:12.448Z,102319.05
2017-12-20T23:51:40.804Z,102330.06
2017-12-20T23:54:09.192Z,102326.88
2017-12-20T23:56:37.581Z,102328.29
2017-12-20T23:59:05.949Z,102321.95
